sensor_id;sensor_type;location;lat;lon;timestamp;P1;durP1;ratioP1;P2;durP2;ratioP2
55469;SDS011;41334;47.872;16.384;2022-08-18T00:00:49;5.03;;;3.40;;
55469;SDS011;41334;47.872;16.384;2022-08-18T00:03:54;4.93;;;3.30;;
55469;SDS011;41334;47.872;16.384;2022-08-18T00:07:05;6.60;;;3.60;;
55469;SDS011;41334;47.872;16.384;2022-08-18T00:10:08;5.57;;;3.38;;
55469;SDS011;41334;47.872;16.384;2022-08-18T00:13:19;9.88;;;2.95;;
55469;SDS011;41334;47.872;16.384;2022-08-18T00:16:24;7.70;;;3.50;;
55469;SDS011;41334;47.872;16.384;2022-08-18T00:19:25;4.22;;;3.30;;
55469;SDS011;41334;47.872;16.384;2022-08-18T00:22:47;6.82;;;3.38;;
55469;SDS011;41334;47.872;16.384;2022-08-18T00:25:50;6.38;;;3.22;;
55469;SDS011;41334;47.872;16.384;2022-08-18T00:28:52;5.72;;;3.58;;
55469;SDS011;41334;47.872;16.384;2022-08-18T00:31:54;4.45;;;3.03;;
55469;SDS011;41334;47.872;16.384;2022-08-18T00:34:55;4.13;;;3.13;;
55469;SDS011;41334;47.872;16.384;2022-08-18T00:37:58;4.35;;;3.40;;
55469;SDS011;41334;47.872;16.384;2022-08-18T00:41:01;5.30;;;3.30;;
55469;SDS011;41334;47.872;16.384;2022-08-18T00:44:03;5.03;;;3.38;;
55469;SDS011;41334;47.872;16.384;2022-08-18T00:47:05;5.30;;;3.35;;
55469;SDS011;41334;47.872;16.384;2022-08-18T00:50:08;7.22;;;4.15;;
55469;SDS011;41334;47.872;16.384;2022-08-18T00:56:25;4.50;;;3.72;;
55469;SDS011;41334;47.872;16.384;2022-08-18T00:59:48;5.30;;;3.78;;
55469;SDS011;41334;47.872;16.384;2022-08-18T01:02:56;6.07;;;3.67;;
55469;SDS011;41334;47.872;16.384;2022-08-18T01:06:10;5.53;;;3.40;;
55469;SDS011;41334;47.872;16.384;2022-08-18T01:09:22;8.10;;;3.65;;
55469;SDS011;41334;47.872;16.384;2022-08-18T01:12:24;6.32;;;3.78;;
55469;SDS011;41334;47.872;16.384;2022-08-18T01:15:46;8.27;;;3.72;;
55469;SDS011;41334;47.872;16.384;2022-08-18T01:18:48;9.18;;;3.90;;
55469;SDS011;41334;47.872;16.384;2022-08-18T01:22:11;7.50;;;3.45;;
55469;SDS011;41334;47.872;16.384;2022-08-18T01:25:35;6.15;;;3.53;;
55469;SDS011;41334;47.872;16.384;2022-08-18T01:29:02;4.93;;;3.35;;
55469;SDS011;41334;47.872;16.384;2022-08-18T01:32:10;5.97;;;3.50;;
55469;SDS011;41334;47.872;16.384;2022-08-18T01:35:14;5.05;;;3.30;;
55469;SDS011;41334;47.872;16.384;2022-08-18T01:38:19;5.88;;;3.25;;
55469;SDS011;41334;47.872;16.384;2022-08-18T01:41:23;4.28;;;3.30;;
55469;SDS011;41334;47.872;16.384;2022-08-18T01:44:31;8.02;;;4.28;;
55469;SDS011;41334;47.872;16.384;2022-08-18T01:47:34;5.05;;;3.83;;
55469;SDS011;41334;47.872;16.384;2022-08-18T01:50:57;6.90;;;3.45;;
55469;SDS011;41334;47.872;16.384;2022-08-18T01:53:59;6.40;;;3.25;;
55469;SDS011;41334;47.872;16.384;2022-08-18T01:57:02;4.07;;;3.65;;
55469;SDS011;41334;47.872;16.384;2022-08-18T02:00:04;6.53;;;3.72;;
55469;SDS011;41334;47.872;16.384;2022-08-18T02:03:12;6.10;;;3.40;;
55469;SDS011;41334;47.872;16.384;2022-08-18T02:06:15;6.18;;;3.50;;
55469;SDS011;41334;47.872;16.384;2022-08-18T02:09:32;6.80;;;3.65;;
55469;SDS011;41334;47.872;16.384;2022-08-18T02:12:35;7.38;;;3.53;;
55469;SDS011;41334;47.872;16.384;2022-08-18T02:15:37;5.45;;;3.78;;
55469;SDS011;41334;47.872;16.384;2022-08-18T02:18:43;4.88;;;3.53;;
55469;SDS011;41334;47.872;16.384;2022-08-18T02:21:50;5.90;;;3.38;;
55469;SDS011;41334;47.872;16.384;2022-08-18T02:24:53;7.10;;;3.38;;
55469;SDS011;41334;47.872;16.384;2022-08-18T02:27:57;4.53;;;3.65;;
55469;SDS011;41334;47.872;16.384;2022-08-18T02:34:11;5.13;;;3.35;;
55469;SDS011;41334;47.872;16.384;2022-08-18T02:37:13;10.20;;;3.50;;
55469;SDS011;41334;47.872;16.384;2022-08-18T02:40:16;4.97;;;3.42;;
55469;SDS011;41334;47.872;16.384;2022-08-18T02:43:19;4.43;;;3.60;;
55469;SDS011;41334;47.872;16.384;2022-08-18T02:46:21;9.75;;;3.67;;
55469;SDS011;41334;47.872;16.384;2022-08-18T02:49:23;6.32;;;3.92;;
55469;SDS011;41334;47.872;16.384;2022-08-18T02:52:25;5.32;;;3.50;;
55469;SDS011;41334;47.872;16.384;2022-08-18T02:55:33;5.60;;;3.70;;
55469;SDS011;41334;47.872;16.384;2022-08-18T02:58:34;3.78;;;3.05;;
55469;SDS011;41334;47.872;16.384;2022-08-18T03:01:38;4.93;;;2.92;;
55469;SDS011;41334;47.872;16.384;2022-08-18T03:04:43;5.65;;;4.05;;
55469;SDS011;41334;47.872;16.384;2022-08-18T03:07:44;6.75;;;4.25;;
55469;SDS011;41334;47.872;16.384;2022-08-18T03:10:49;5.95;;;4.18;;
55469;SDS011;41334;47.872;16.384;2022-08-18T03:13:53;5.20;;;4.13;;
55469;SDS011;41334;47.872;16.384;2022-08-18T03:16:56;5.40;;;4.10;;
55469;SDS011;41334;47.872;16.384;2022-08-18T03:19:58;6.97;;;3.95;;
55469;SDS011;41334;47.872;16.384;2022-08-18T03:23:03;7.22;;;4.63;;
55469;SDS011;41334;47.872;16.384;2022-08-18T03:26:11;7.78;;;4.25;;
55469;SDS011;41334;47.872;16.384;2022-08-18T03:29:14;5.18;;;3.72;;
55469;SDS011;41334;47.872;16.384;2022-08-18T03:32:16;5.60;;;3.75;;
55469;SDS011;41334;47.872;16.384;2022-08-18T03:35:18;5.95;;;4.32;;
55469;SDS011;41334;47.872;16.384;2022-08-18T03:38:20;7.93;;;4.75;;
55469;SDS011;41334;47.872;16.384;2022-08-18T03:41:23;5.78;;;4.50;;
55469;SDS011;41334;47.872;16.384;2022-08-18T03:44:46;5.22;;;4.18;;
55469;SDS011;41334;47.872;16.384;2022-08-18T03:47:48;9.32;;;4.07;;
55469;SDS011;41334;47.872;16.384;2022-08-18T03:50:53;7.25;;;4.32;;
55469;SDS011;41334;47.872;16.384;2022-08-18T03:53:56;6.53;;;4.57;;
55469;SDS011;41334;47.872;16.384;2022-08-18T03:57:00;4.90;;;4.22;;
55469;SDS011;41334;47.872;16.384;2022-08-18T04:00:02;7.05;;;4.22;;
55469;SDS011;41334;47.872;16.384;2022-08-18T04:03:05;4.72;;;3.67;;
55469;SDS011;41334;47.872;16.384;2022-08-18T04:06:13;7.68;;;5.07;;
55469;SDS011;41334;47.872;16.384;2022-08-18T04:09:30;8.85;;;4.60;;
55469;SDS011;41334;47.872;16.384;2022-08-18T04:12:33;10.25;;;4.50;;
55469;SDS011;41334;47.872;16.384;2022-08-18T04:15:37;7.00;;;4.35;;
55469;SDS011;41334;47.872;16.384;2022-08-18T04:18:39;9.80;;;5.10;;
55469;SDS011;41334;47.872;16.384;2022-08-18T04:21:41;6.40;;;4.10;;
55469;SDS011;41334;47.872;16.384;2022-08-18T04:24:43;6.18;;;4.28;;
55469;SDS011;41334;47.872;16.384;2022-08-18T04:27:46;9.02;;;4.07;;
55469;SDS011;41334;47.872;16.384;2022-08-18T04:30:47;4.80;;;4.15;;
55469;SDS011;41334;47.872;16.384;2022-08-18T04:33:50;5.50;;;4.30;;
55469;SDS011;41334;47.872;16.384;2022-08-18T04:36:52;6.47;;;4.28;;
55469;SDS011;41334;47.872;16.384;2022-08-18T04:39:54;8.45;;;4.47;;
55469;SDS011;41334;47.872;16.384;2022-08-18T04:42:56;6.40;;;4.22;;
55469;SDS011;41334;47.872;16.384;2022-08-18T04:45:58;5.18;;;4.05;;
55469;SDS011;41334;47.872;16.384;2022-08-18T04:49:02;7.85;;;4.35;;
55469;SDS011;41334;47.872;16.384;2022-08-18T04:52:05;9.38;;;3.58;;
55469;SDS011;41334;47.872;16.384;2022-08-18T04:55:51;5.80;;;4.43;;
55469;SDS011;41334;47.872;16.384;2022-08-18T04:58:58;6.75;;;3.97;;
55469;SDS011;41334;47.872;16.384;2022-08-18T05:02:07;5.85;;;4.10;;
55469;SDS011;41334;47.872;16.384;2022-08-18T05:05:15;7.72;;;4.20;;
55469;SDS011;41334;47.872;16.384;2022-08-18T05:08:16;10.27;;;3.55;;
55469;SDS011;41334;47.872;16.384;2022-08-18T05:11:19;5.25;;;3.47;;
55469;SDS011;41334;47.872;16.384;2022-08-18T05:14:22;7.70;;;4.75;;
55469;SDS011;41334;47.872;16.384;2022-08-18T05:17:25;5.63;;;3.63;;
55469;SDS011;41334;47.872;16.384;2022-08-18T05:23:32;6.57;;;3.60;;
55469;SDS011;41334;47.872;16.384;2022-08-18T05:26:36;15.57;;;4.43;;
55469;SDS011;41334;47.872;16.384;2022-08-18T05:29:38;11.07;;;3.70;;
55469;SDS011;41334;47.872;16.384;2022-08-18T05:32:46;9.38;;;3.85;;
55469;SDS011;41334;47.872;16.384;2022-08-18T05:35:54;13.23;;;3.83;;
55469;SDS011;41334;47.872;16.384;2022-08-18T05:39:13;8.10;;;4.07;;
55469;SDS011;41334;47.872;16.384;2022-08-18T05:42:23;7.55;;;3.72;;
55469;SDS011;41334;47.872;16.384;2022-08-18T05:48:31;8.23;;;3.65;;
55469;SDS011;41334;47.872;16.384;2022-08-18T05:51:35;4.90;;;3.22;;
55469;SDS011;41334;47.872;16.384;2022-08-18T05:54:42;4.13;;;3.35;;
55469;SDS011;41334;47.872;16.384;2022-08-18T05:58:11;4.82;;;3.53;;
55469;SDS011;41334;47.872;16.384;2022-08-18T06:01:21;11.60;;;3.55;;
55469;SDS011;41334;47.872;16.384;2022-08-18T06:07:44;8.38;;;3.88;;
55469;SDS011;41334;47.872;16.384;2022-08-18T06:10:53;5.93;;;3.47;;
55469;SDS011;41334;47.872;16.384;2022-08-18T06:13:55;6.03;;;3.83;;
55469;SDS011;41334;47.872;16.384;2022-08-18T06:27:35;5.40;;;3.65;;
55469;SDS011;41334;47.872;16.384;2022-08-18T06:30:48;4.95;;;3.55;;
55469;SDS011;41334;47.872;16.384;2022-08-18T06:34:11;5.63;;;3.95;;
55469;SDS011;41334;47.872;16.384;2022-08-18T06:37:30;9.45;;;3.55;;
55469;SDS011;41334;47.872;16.384;2022-08-18T06:40:35;8.45;;;3.58;;
55469;SDS011;41334;47.872;16.384;2022-08-18T06:43:38;5.90;;;3.58;;
55469;SDS011;41334;47.872;16.384;2022-08-18T06:46:55;11.60;;;3.65;;
55469;SDS011;41334;47.872;16.384;2022-08-18T06:50:25;5.15;;;3.50;;
55469;SDS011;41334;47.872;16.384;2022-08-18T06:57:29;6.18;;;3.70;;
55469;SDS011;41334;47.872;16.384;2022-08-18T07:00:35;4.72;;;3.25;;
55469;SDS011;41334;47.872;16.384;2022-08-18T07:03:41;6.38;;;3.47;;
55469;SDS011;41334;47.872;16.384;2022-08-18T07:06:46;3.65;;;3.30;;
55469;SDS011;41334;47.872;16.384;2022-08-18T07:09:48;5.15;;;3.22;;
55469;SDS011;41334;47.872;16.384;2022-08-18T07:12:50;8.18;;;3.85;;
55469;SDS011;41334;47.872;16.384;2022-08-18T07:15:53;6.65;;;3.60;;
55469;SDS011;41334;47.872;16.384;2022-08-18T07:19:09;7.50;;;3.33;;
55469;SDS011;41334;47.872;16.384;2022-08-18T07:22:13;7.70;;;3.67;;
55469;SDS011;41334;47.872;16.384;2022-08-18T07:25:21;4.85;;;3.35;;
55469;SDS011;41334;47.872;16.384;2022-08-18T07:28:27;10.85;;;3.72;;
55469;SDS011;41334;47.872;16.384;2022-08-18T07:31:47;7.30;;;3.90;;
55469;SDS011;41334;47.872;16.384;2022-08-18T07:34:53;7.63;;;3.92;;
55469;SDS011;41334;47.872;16.384;2022-08-18T07:38:03;5.63;;;3.28;;
55469;SDS011;41334;47.872;16.384;2022-08-18T07:41:35;7.00;;;3.70;;
55469;SDS011;41334;47.872;16.384;2022-08-18T07:44:42;5.88;;;3.40;;
55469;SDS011;41334;47.872;16.384;2022-08-18T07:47:58;5.95;;;3.88;;
55469;SDS011;41334;47.872;16.384;2022-08-18T07:51:33;10.15;;;3.92;;
55469;SDS011;41334;47.872;16.384;2022-08-18T07:54:49;11.10;;;3.60;;
55469;SDS011;41334;47.872;16.384;2022-08-18T07:58:55;7.43;;;3.63;;
55469;SDS011;41334;47.872;16.384;2022-08-18T08:01:47;4.93;;;3.75;;
55469;SDS011;41334;47.872;16.384;2022-08-18T08:08:15;5.65;;;3.20;;
55469;SDS011;41334;47.872;16.384;2022-08-18T08:14:47;7.40;;;3.60;;
55469;SDS011;41334;47.872;16.384;2022-08-18T08:18:15;11.43;;;3.60;;
55469;SDS011;41334;47.872;16.384;2022-08-18T08:21:24;7.63;;;3.45;;
55469;SDS011;41334;47.872;16.384;2022-08-18T08:34:54;11.80;;;3.83;;
55469;SDS011;41334;47.872;16.384;2022-08-18T08:38:34;7.90;;;3.88;;
55469;SDS011;41334;47.872;16.384;2022-08-18T08:41:53;7.78;;;3.70;;
55469;SDS011;41334;47.872;16.384;2022-08-18T08:45:22;6.13;;;4.03;;
55469;SDS011;41334;47.872;16.384;2022-08-18T08:48:32;5.47;;;3.75;;
55469;SDS011;41334;47.872;16.384;2022-08-18T08:51:42;9.95;;;4.22;;
55469;SDS011;41334;47.872;16.384;2022-08-18T08:55:02;8.43;;;4.30;;
55469;SDS011;41334;47.872;16.384;2022-08-18T09:11:47;11.57;;;3.40;;
55469;SDS011;41334;47.872;16.384;2022-08-18T09:21:47;14.57;;;3.15;;
55469;SDS011;41334;47.872;16.384;2022-08-18T09:25:27;9.45;;;3.63;;
55469;SDS011;41334;47.872;16.384;2022-08-18T09:28:55;9.13;;;3.60;;
55469;SDS011;41334;47.872;16.384;2022-08-18T09:38:37;4.55;;;3.00;;
55469;SDS011;41334;47.872;16.384;2022-08-18T09:42:13;12.00;;;3.00;;
55469;SDS011;41334;47.872;16.384;2022-08-18T09:48:35;5.97;;;2.70;;
55469;SDS011;41334;47.872;16.384;2022-08-18T09:51:43;4.50;;;2.60;;
55469;SDS011;41334;47.872;16.384;2022-08-18T10:04:33;6.80;;;3.20;;
55469;SDS011;41334;47.872;16.384;2022-08-18T10:07:37;4.85;;;2.80;;
55469;SDS011;41334;47.872;16.384;2022-08-18T10:10:52;6.35;;;2.95;;
55469;SDS011;41334;47.872;16.384;2022-08-18T10:17:38;6.35;;;2.75;;
55469;SDS011;41334;47.872;16.384;2022-08-18T10:20:57;6.43;;;2.90;;
55469;SDS011;41334;47.872;16.384;2022-08-18T10:30:59;8.50;;;3.00;;
55469;SDS011;41334;47.872;16.384;2022-08-18T10:34:10;5.50;;;3.10;;
55469;SDS011;41334;47.872;16.384;2022-08-18T10:37:43;6.38;;;2.78;;
55469;SDS011;41334;47.872;16.384;2022-08-18T10:41:01;3.72;;;2.42;;
55469;SDS011;41334;47.872;16.384;2022-08-18T10:47:31;7.93;;;2.80;;
55469;SDS011;41334;47.872;16.384;2022-08-18T10:51:08;5.45;;;3.00;;
55469;SDS011;41334;47.872;16.384;2022-08-18T10:54:40;5.97;;;2.78;;
55469;SDS011;41334;47.872;16.384;2022-08-18T10:58:02;3.67;;;2.60;;
55469;SDS011;41334;47.872;16.384;2022-08-18T11:07:39;11.88;;;2.97;;
55469;SDS011;41334;47.872;16.384;2022-08-18T11:10:46;7.40;;;2.50;;
55469;SDS011;41334;47.872;16.384;2022-08-18T11:17:25;5.43;;;2.63;;
55469;SDS011;41334;47.872;16.384;2022-08-18T11:20:49;3.03;;;2.13;;
55469;SDS011;41334;47.872;16.384;2022-08-18T11:27:16;9.52;;;2.30;;
55469;SDS011;41334;47.872;16.384;2022-08-18T11:30:40;5.95;;;2.70;;
55469;SDS011;41334;47.872;16.384;2022-08-18T11:33:47;4.90;;;2.17;;
55469;SDS011;41334;47.872;16.384;2022-08-18T11:36:55;4.38;;;2.20;;
55469;SDS011;41334;47.872;16.384;2022-08-18T11:40:00;8.00;;;2.45;;
55469;SDS011;41334;47.872;16.384;2022-08-18T11:43:11;4.72;;;2.33;;
55469;SDS011;41334;47.872;16.384;2022-08-18T11:46:31;4.60;;;2.28;;
55469;SDS011;41334;47.872;16.384;2022-08-18T11:49:47;4.03;;;2.15;;
55469;SDS011;41334;47.872;16.384;2022-08-18T11:52:54;6.82;;;2.80;;
55469;SDS011;41334;47.872;16.384;2022-08-18T12:03:00;6.55;;;2.30;;
55469;SDS011;41334;47.872;16.384;2022-08-18T12:06:16;3.72;;;1.73;;
55469;SDS011;41334;47.872;16.384;2022-08-18T12:13:05;6.07;;;2.20;;
55469;SDS011;41334;47.872;16.384;2022-08-18T12:16:14;7.53;;;2.30;;
55469;SDS011;41334;47.872;16.384;2022-08-18T12:19:20;4.63;;;2.53;;
55469;SDS011;41334;47.872;16.384;2022-08-18T12:22:26;6.95;;;2.10;;
55469;SDS011;41334;47.872;16.384;2022-08-18T12:25:31;6.28;;;2.00;;
55469;SDS011;41334;47.872;16.384;2022-08-18T12:28:33;5.75;;;2.20;;
55469;SDS011;41334;47.872;16.384;2022-08-18T12:31:35;4.47;;;2.13;;
55469;SDS011;41334;47.872;16.384;2022-08-18T12:34:58;7.10;;;2.50;;
55469;SDS011;41334;47.872;16.384;2022-08-18T12:38:10;5.80;;;2.63;;
55469;SDS011;41334;47.872;16.384;2022-08-18T12:41:16;5.55;;;1.95;;
55469;SDS011;41334;47.872;16.384;2022-08-18T12:44:24;4.43;;;2.45;;
55469;SDS011;41334;47.872;16.384;2022-08-18T12:47:27;5.25;;;2.13;;
55469;SDS011;41334;47.872;16.384;2022-08-18T12:50:31;5.93;;;2.25;;
55469;SDS011;41334;47.872;16.384;2022-08-18T12:53:50;6.10;;;1.98;;
55469;SDS011;41334;47.872;16.384;2022-08-18T12:57:00;7.18;;;2.28;;
55469;SDS011;41334;47.872;16.384;2022-08-18T13:00:07;5.47;;;2.33;;
55469;SDS011;41334;47.872;16.384;2022-08-18T13:03:17;3.05;;;1.95;;
55469;SDS011;41334;47.872;16.384;2022-08-18T13:06:22;5.18;;;1.77;;
55469;SDS011;41334;47.872;16.384;2022-08-18T13:09:31;5.00;;;2.10;;
55469;SDS011;41334;47.872;16.384;2022-08-18T13:12:54;6.28;;;2.35;;
55469;SDS011;41334;47.872;16.384;2022-08-18T13:15:57;7.60;;;2.53;;
55469;SDS011;41334;47.872;16.384;2022-08-18T13:19:04;4.63;;;2.15;;
55469;SDS011;41334;47.872;16.384;2022-08-18T13:22:07;12.10;;;7.60;;
55469;SDS011;41334;47.872;16.384;2022-08-18T13:25:12;19.40;;;11.77;;
55469;SDS011;41334;47.872;16.384;2022-08-18T13:28:35;6.97;;;3.90;;
55469;SDS011;41334;47.872;16.384;2022-08-18T13:31:57;8.40;;;2.63;;
55469;SDS011;41334;47.872;16.384;2022-08-18T13:35:00;6.28;;;2.65;;
55469;SDS011;41334;47.872;16.384;2022-08-18T13:38:13;6.55;;;2.60;;
55469;SDS011;41334;47.872;16.384;2022-08-18T13:41:28;4.32;;;2.50;;
55469;SDS011;41334;47.872;16.384;2022-08-18T13:47:34;4.50;;;2.47;;
55469;SDS011;41334;47.872;16.384;2022-08-18T13:53:46;8.88;;;2.20;;
55469;SDS011;41334;47.872;16.384;2022-08-18T13:57:08;6.25;;;2.25;;
55469;SDS011;41334;47.872;16.384;2022-08-18T14:00:09;7.00;;;2.47;;
55469;SDS011;41334;47.872;16.384;2022-08-18T14:03:20;4.22;;;2.30;;
55469;SDS011;41334;47.872;16.384;2022-08-18T14:06:44;6.95;;;2.47;;
55469;SDS011;41334;47.872;16.384;2022-08-18T14:09:56;7.53;;;2.95;;
55469;SDS011;41334;47.872;16.384;2022-08-18T14:13:04;5.32;;;2.33;;
55469;SDS011;41334;47.872;16.384;2022-08-18T14:16:21;9.45;;;2.58;;
55469;SDS011;41334;47.872;16.384;2022-08-18T14:19:27;3.95;;;2.30;;
55469;SDS011;41334;47.872;16.384;2022-08-18T14:22:51;10.23;;;2.50;;
55469;SDS011;41334;47.872;16.384;2022-08-18T14:26:22;6.05;;;2.53;;
55469;SDS011;41334;47.872;16.384;2022-08-18T14:29:43;7.40;;;2.53;;
55469;SDS011;41334;47.872;16.384;2022-08-18T14:32:48;3.70;;;2.10;;
55469;SDS011;41334;47.872;16.384;2022-08-18T14:35:51;7.15;;;2.58;;
55469;SDS011;41334;47.872;16.384;2022-08-18T14:39:07;5.13;;;2.92;;
55469;SDS011;41334;47.872;16.384;2022-08-18T14:42:10;4.40;;;2.53;;
55469;SDS011;41334;47.872;16.384;2022-08-18T14:45:15;6.47;;;2.50;;
55469;SDS011;41334;47.872;16.384;2022-08-18T14:48:34;10.40;;;2.47;;
55469;SDS011;41334;47.872;16.384;2022-08-18T14:51:37;5.30;;;2.97;;
55469;SDS011;41334;47.872;16.384;2022-08-18T14:54:43;4.97;;;2.28;;
55469;SDS011;41334;47.872;16.384;2022-08-18T14:57:46;9.55;;;2.42;;
55469;SDS011;41334;47.872;16.384;2022-08-18T15:00:48;8.07;;;2.30;;
55469;SDS011;41334;47.872;16.384;2022-08-18T15:03:54;5.32;;;2.53;;
55469;SDS011;41334;47.872;16.384;2022-08-18T15:06:56;4.22;;;2.22;;
55469;SDS011;41334;47.872;16.384;2022-08-18T15:09:58;4.70;;;2.30;;
55469;SDS011;41334;47.872;16.384;2022-08-18T15:13:20;6.63;;;2.47;;
55469;SDS011;41334;47.872;16.384;2022-08-18T15:16:26;9.77;;;2.67;;
55469;SDS011;41334;47.872;16.384;2022-08-18T15:19:35;4.60;;;2.60;;
55469;SDS011;41334;47.872;16.384;2022-08-18T15:23:00;9.90;;;2.80;;
55469;SDS011;41334;47.872;16.384;2022-08-18T15:26:28;70.15;;;5.60;;
55469;SDS011;41334;47.872;16.384;2022-08-18T15:29:31;36.63;;;2.95;;
55469;SDS011;41334;47.872;16.384;2022-08-18T15:32:33;31.02;;;2.10;;
55469;SDS011;41334;47.872;16.384;2022-08-18T15:35:35;15.90;;;1.35;;
55469;SDS011;41334;47.872;16.384;2022-08-18T15:38:44;16.05;;;1.67;;
55469;SDS011;41334;47.872;16.384;2022-08-18T15:41:46;10.13;;;0.93;;
55469;SDS011;41334;47.872;16.384;2022-08-18T15:44:54;10.45;;;0.80;;
55469;SDS011;41334;47.872;16.384;2022-08-18T15:47:57;2.80;;;0.70;;
55469;SDS011;41334;47.872;16.384;2022-08-18T15:50:59;4.07;;;1.13;;
55469;SDS011;41334;47.872;16.384;2022-08-18T15:54:12;5.72;;;1.55;;
55469;SDS011;41334;47.872;16.384;2022-08-18T15:57:15;2.88;;;0.93;;
55469;SDS011;41334;47.872;16.384;2022-08-18T16:00:37;9.75;;;1.10;;
55469;SDS011;41334;47.872;16.384;2022-08-18T16:03:46;7.97;;;1.00;;
55469;SDS011;41334;47.872;16.384;2022-08-18T16:06:51;5.95;;;1.20;;
55469;SDS011;41334;47.872;16.384;2022-08-18T16:12:58;2.13;;;0.70;;
55469;SDS011;41334;47.872;16.384;2022-08-18T16:16:09;9.23;;;1.02;;
55469;SDS011;41334;47.872;16.384;2022-08-18T16:19:12;7.75;;;1.00;;
55469;SDS011;41334;47.872;16.384;2022-08-18T16:22:14;4.28;;;1.10;;
55469;SDS011;41334;47.872;16.384;2022-08-18T16:25:16;9.88;;;0.90;;
55469;SDS011;41334;47.872;16.384;2022-08-18T16:28:17;2.78;;;1.10;;
55469;SDS011;41334;47.872;16.384;2022-08-18T16:31:20;8.55;;;1.13;;
55469;SDS011;41334;47.872;16.384;2022-08-18T16:34:28;6.95;;;0.98;;
55469;SDS011;41334;47.872;16.384;2022-08-18T16:37:31;8.18;;;0.88;;
55469;SDS011;41334;47.872;16.384;2022-08-18T16:40:33;3.28;;;1.25;;
55469;SDS011;41334;47.872;16.384;2022-08-18T16:43:36;4.30;;;0.93;;
55469;SDS011;41334;47.872;16.384;2022-08-18T16:46:38;4.28;;;1.15;;
55469;SDS011;41334;47.872;16.384;2022-08-18T16:49:40;3.72;;;0.80;;
55469;SDS011;41334;47.872;16.384;2022-08-18T16:52:42;5.05;;;1.25;;
55469;SDS011;41334;47.872;16.384;2022-08-18T16:55:44;2.83;;;0.90;;
55469;SDS011;41334;47.872;16.384;2022-08-18T16:58:46;4.25;;;1.75;;
55469;SDS011;41334;47.872;16.384;2022-08-18T17:02:07;1.98;;;0.63;;
55469;SDS011;41334;47.872;16.384;2022-08-18T17:05:28;4.57;;;1.00;;
55469;SDS011;41334;47.872;16.384;2022-08-18T17:08:30;7.22;;;1.20;;
55469;SDS011;41334;47.872;16.384;2022-08-18T17:11:36;4.10;;;1.05;;
55469;SDS011;41334;47.872;16.384;2022-08-18T17:14:52;5.55;;;0.80;;
55469;SDS011;41334;47.872;16.384;2022-08-18T17:17:54;5.28;;;0.90;;
55469;SDS011;41334;47.872;16.384;2022-08-18T17:21:03;6.25;;;1.10;;
55469;SDS011;41334;47.872;16.384;2022-08-18T17:24:07;6.88;;;1.13;;
55469;SDS011;41334;47.872;16.384;2022-08-18T17:27:16;4.97;;;0.90;;
55469;SDS011;41334;47.872;16.384;2022-08-18T17:30:29;7.15;;;0.95;;
55469;SDS011;41334;47.872;16.384;2022-08-18T17:33:34;7.38;;;0.95;;
55469;SDS011;41334;47.872;16.384;2022-08-18T17:36:42;4.30;;;0.82;;
55469;SDS011;41334;47.872;16.384;2022-08-18T17:39:59;8.07;;;1.13;;
55469;SDS011;41334;47.872;16.384;2022-08-18T17:43:11;5.57;;;1.10;;
55469;SDS011;41334;47.872;16.384;2022-08-18T17:46:28;7.65;;;1.00;;
55469;SDS011;41334;47.872;16.384;2022-08-18T17:49:36;5.90;;;1.10;;
55469;SDS011;41334;47.872;16.384;2022-08-18T17:53:22;4.57;;;0.77;;
55469;SDS011;41334;47.872;16.384;2022-08-18T17:56:28;8.15;;;1.10;;
55469;SDS011;41334;47.872;16.384;2022-08-18T17:59:43;5.50;;;0.80;;
55469;SDS011;41334;47.872;16.384;2022-08-18T18:02:52;5.97;;;0.90;;
55469;SDS011;41334;47.872;16.384;2022-08-18T18:05:57;2.55;;;0.98;;
55469;SDS011;41334;47.872;16.384;2022-08-18T18:09:08;4.18;;;1.00;;
55469;SDS011;41334;47.872;16.384;2022-08-18T18:15:29;8.45;;;1.20;;
55469;SDS011;41334;47.872;16.384;2022-08-18T18:21:41;11.02;;;1.20;;
55469;SDS011;41334;47.872;16.384;2022-08-18T18:25:02;9.20;;;1.08;;
55469;SDS011;41334;47.872;16.384;2022-08-18T18:28:04;12.25;;;1.48;;
55469;SDS011;41334;47.872;16.384;2022-08-18T18:31:25;9.30;;;1.27;;
55469;SDS011;41334;47.872;16.384;2022-08-18T18:34:30;11.82;;;1.27;;
55469;SDS011;41334;47.872;16.384;2022-08-18T18:37:45;6.95;;;1.17;;
55469;SDS011;41334;47.872;16.384;2022-08-18T18:44:08;5.07;;;1.15;;
55469;SDS011;41334;47.872;16.384;2022-08-18T18:50:48;5.28;;;1.30;;
55469;SDS011;41334;47.872;16.384;2022-08-18T18:53:57;7.72;;;1.50;;
55469;SDS011;41334;47.872;16.384;2022-08-18T18:57:09;7.93;;;1.38;;
55469;SDS011;41334;47.872;16.384;2022-08-18T19:06:52;6.13;;;1.17;;
55469;SDS011;41334;47.872;16.384;2022-08-18T19:10:01;8.23;;;1.17;;
55469;SDS011;41334;47.872;16.384;2022-08-18T19:13:10;4.80;;;0.98;;
55469;SDS011;41334;47.872;16.384;2022-08-18T19:16:46;4.78;;;1.20;;
55469;SDS011;41334;47.872;16.384;2022-08-18T19:19:56;6.72;;;1.00;;
55469;SDS011;41334;47.872;16.384;2022-08-18T19:23:03;8.02;;;1.00;;
55469;SDS011;41334;47.872;16.384;2022-08-18T19:26:21;3.63;;;1.23;;
55469;SDS011;41334;47.872;16.384;2022-08-18T19:29:31;5.63;;;0.90;;
55469;SDS011;41334;47.872;16.384;2022-08-18T19:32:40;4.03;;;0.80;;
55469;SDS011;41334;47.872;16.384;2022-08-18T19:35:51;6.32;;;1.10;;
55469;SDS011;41334;47.872;16.384;2022-08-18T19:39:03;5.60;;;1.13;;
55469;SDS011;41334;47.872;16.384;2022-08-18T19:45:39;10.10;;;1.65;;
55469;SDS011;41334;47.872;16.384;2022-08-18T20:02:43;7.05;;;1.38;;
55469;SDS011;41334;47.872;16.384;2022-08-18T20:05:58;7.03;;;0.85;;
55469;SDS011;41334;47.872;16.384;2022-08-18T20:09:37;6.40;;;1.25;;
55469;SDS011;41334;47.872;16.384;2022-08-18T20:22:46;8.60;;;1.33;;
55469;SDS011;41334;47.872;16.384;2022-08-18T20:25:54;6.50;;;1.30;;
55469;SDS011;41334;47.872;16.384;2022-08-18T20:28:56;8.70;;;1.33;;
55469;SDS011;41334;47.872;16.384;2022-08-18T20:31:58;8.48;;;1.92;;
55469;SDS011;41334;47.872;16.384;2022-08-18T20:35:12;6.75;;;1.15;;
55469;SDS011;41334;47.872;16.384;2022-08-18T20:41:41;6.07;;;1.38;;
55469;SDS011;41334;47.872;16.384;2022-08-18T20:44:58;7.90;;;1.40;;
55469;SDS011;41334;47.872;16.384;2022-08-18T20:48:15;5.85;;;1.25;;
55469;SDS011;41334;47.872;16.384;2022-08-18T20:51:29;6.22;;;1.20;;
55469;SDS011;41334;47.872;16.384;2022-08-18T20:58:13;4.93;;;1.10;;
55469;SDS011;41334;47.872;16.384;2022-08-18T21:01:18;3.28;;;1.20;;
55469;SDS011;41334;47.872;16.384;2022-08-18T21:14:32;8.53;;;2.37;;
55469;SDS011;41334;47.872;16.384;2022-08-18T21:17:34;8.32;;;2.10;;
55469;SDS011;41334;47.872;16.384;2022-08-18T21:20:35;7.38;;;2.03;;
55469;SDS011;41334;47.872;16.384;2022-08-18T21:23:38;10.65;;;1.80;;
55469;SDS011;41334;47.872;16.384;2022-08-18T21:26:44;10.05;;;2.45;;
55469;SDS011;41334;47.872;16.384;2022-08-18T21:29:48;9.07;;;2.00;;
55469;SDS011;41334;47.872;16.384;2022-08-18T21:32:51;3.78;;;1.55;;
55469;SDS011;41334;47.872;16.384;2022-08-18T21:35:54;6.03;;;1.77;;
55469;SDS011;41334;47.872;16.384;2022-08-18T21:38:56;5.90;;;1.73;;
55469;SDS011;41334;47.872;16.384;2022-08-18T21:42:07;3.58;;;1.70;;
55469;SDS011;41334;47.872;16.384;2022-08-18T21:45:19;3.55;;;2.28;;
55469;SDS011;41334;47.872;16.384;2022-08-18T21:48:23;3.80;;;1.52;;
55469;SDS011;41334;47.872;16.384;2022-08-18T21:51:28;7.93;;;1.92;;
55469;SDS011;41334;47.872;16.384;2022-08-18T21:54:31;7.45;;;2.10;;
55469;SDS011;41334;47.872;16.384;2022-08-18T21:57:49;5.85;;;1.60;;
55469;SDS011;41334;47.872;16.384;2022-08-18T22:01:35;5.80;;;1.90;;